sensor_id;sensor_type;location;lat;lon;timestamp;P1;durP1;ratioP1;P2;durP2;ratioP2
20623;SDS011;10471;42.736;23.346;2022-08-19T00:01:19;10.33;;;7.27;;
20623;SDS011;10471;42.736;23.346;2022-08-19T00:03:45;8.73;;;7.20;;
20623;SDS011;10471;42.736;23.346;2022-08-19T00:06:10;10.37;;;7.93;;
20623;SDS011;10471;42.736;23.346;2022-08-19T00:08:36;8.80;;;7.83;;
20623;SDS011;10471;42.736;23.346;2022-08-19T00:11:01;8.67;;;7.77;;
20623;SDS011;10471;42.736;23.346;2022-08-19T00:13:27;9.07;;;7.87;;
20623;SDS011;10471;42.736;23.346;2022-08-19T00:15:53;8.70;;;7.50;;
20623;SDS011;10471;42.736;23.346;2022-08-19T00:18:20;13.60;;;8.07;;
20623;SDS011;10471;42.736;23.346;2022-08-19T00:20:45;9.67;;;8.67;;
20623;SDS011;10471;42.736;23.346;2022-08-19T00:23:11;9.27;;;8.37;;
20623;SDS011;10471;42.736;23.346;2022-08-19T00:25:36;9.50;;;8.50;;
20623;SDS011;10471;42.736;23.346;2022-08-19T00:28:02;11.33;;;8.70;;
20623;SDS011;10471;42.736;23.346;2022-08-19T00:30:28;10.73;;;9.03;;
20623;SDS011;10471;42.736;23.346;2022-08-19T00:32:53;9.60;;;8.60;;
20623;SDS011;10471;42.736;23.346;2022-08-19T00:35:20;12.20;;;8.93;;
20623;SDS011;10471;42.736;23.346;2022-08-19T00:37:47;11.70;;;8.93;;
20623;SDS011;10471;42.736;23.346;2022-08-19T00:40:13;12.27;;;8.80;;
20623;SDS011;10471;42.736;23.346;2022-08-19T00:42:39;9.77;;;8.73;;
20623;SDS011;10471;42.736;23.346;2022-08-19T00:45:08;10.87;;;9.43;;
20623;SDS011;10471;42.736;23.346;2022-08-19T00:47:37;10.53;;;9.17;;
20623;SDS011;10471;42.736;23.346;2022-08-19T00:50:02;12.73;;;9.87;;
20623;SDS011;10471;42.736;23.346;2022-08-19T00:52:32;13.10;;;9.30;;
20623;SDS011;10471;42.736;23.346;2022-08-19T00:54:59;11.33;;;9.40;;
20623;SDS011;10471;42.736;23.346;2022-08-19T00:57:37;12.20;;;10.10;;
20623;SDS011;10471;42.736;23.346;2022-08-19T01:00:06;11.23;;;10.07;;
20623;SDS011;10471;42.736;23.346;2022-08-19T01:02:36;13.47;;;10.20;;
20623;SDS011;10471;42.736;23.346;2022-08-19T01:05:05;12.00;;;10.13;;
20623;SDS011;10471;42.736;23.346;2022-08-19T01:07:33;13.97;;;10.30;;
20623;SDS011;10471;42.736;23.346;2022-08-19T01:10:00;11.53;;;10.03;;
20623;SDS011;10471;42.736;23.346;2022-08-19T01:12:26;10.87;;;9.53;;
20623;SDS011;10471;42.736;23.346;2022-08-19T01:14:52;14.40;;;10.80;;
20623;SDS011;10471;42.736;23.346;2022-08-19T01:17:18;15.00;;;11.17;;
20623;SDS011;10471;42.736;23.346;2022-08-19T01:19:45;11.50;;;10.23;;
20623;SDS011;10471;42.736;23.346;2022-08-19T01:22:54;12.57;;;10.30;;
20623;SDS011;10471;42.736;23.346;2022-08-19T01:25:04;10.47;;;9.47;;
20623;SDS011;10471;42.736;23.346;2022-08-19T01:27:37;13.20;;;9.40;;
20623;SDS011;10471;42.736;23.346;2022-08-19T01:30:04;12.30;;;10.63;;
20623;SDS011;10471;42.736;23.346;2022-08-19T01:32:30;11.40;;;10.13;;
20623;SDS011;10471;42.736;23.346;2022-08-19T01:34:56;11.57;;;10.33;;
20623;SDS011;10471;42.736;23.346;2022-08-19T01:37:21;12.93;;;10.70;;
20623;SDS011;10471;42.736;23.346;2022-08-19T01:39:47;12.27;;;10.23;;
20623;SDS011;10471;42.736;23.346;2022-08-19T01:42:13;12.80;;;11.40;;
20623;SDS011;10471;42.736;23.346;2022-08-19T01:44:39;16.03;;;11.43;;
20623;SDS011;10471;42.736;23.346;2022-08-19T01:47:06;14.40;;;11.30;;
20623;SDS011;10471;42.736;23.346;2022-08-19T01:49:32;16.63;;;11.10;;
20623;SDS011;10471;42.736;23.346;2022-08-19T01:51:58;14.23;;;10.87;;
20623;SDS011;10471;42.736;23.346;2022-08-19T01:54:24;14.70;;;11.30;;
20623;SDS011;10471;42.736;23.346;2022-08-19T01:56:51;15.20;;;11.87;;
20623;SDS011;10471;42.736;23.346;2022-08-19T01:59:19;14.70;;;11.63;;
20623;SDS011;10471;42.736;23.346;2022-08-19T02:01:47;16.13;;;11.90;;
20623;SDS011;10471;42.736;23.346;2022-08-19T02:04:13;13.40;;;11.13;;
20623;SDS011;10471;42.736;23.346;2022-08-19T02:06:39;15.23;;;11.63;;
20623;SDS011;10471;42.736;23.346;2022-08-19T02:09:05;15.30;;;13.33;;
20623;SDS011;10471;42.736;23.346;2022-08-19T02:11:32;18.53;;;12.10;;
20623;SDS011;10471;42.736;23.346;2022-08-19T02:14:01;16.87;;;11.87;;
20623;SDS011;10471;42.736;23.346;2022-08-19T02:16:28;18.83;;;13.80;;
20623;SDS011;10471;42.736;23.346;2022-08-19T02:18:55;16.87;;;12.90;;
20623;SDS011;10471;42.736;23.346;2022-08-19T02:21:21;15.70;;;13.17;;
20623;SDS011;10471;42.736;23.346;2022-08-19T02:23:48;17.00;;;13.60;;
20623;SDS011;10471;42.736;23.346;2022-08-19T02:26:14;14.63;;;12.67;;
20623;SDS011;10471;42.736;23.346;2022-08-19T02:28:41;15.47;;;13.20;;
20623;SDS011;10471;42.736;23.346;2022-08-19T02:31:11;15.77;;;12.50;;
20623;SDS011;10471;42.736;23.346;2022-08-19T02:33:40;14.70;;;12.20;;
20623;SDS011;10471;42.736;23.346;2022-08-19T02:36:06;14.23;;;12.70;;
20623;SDS011;10471;42.736;23.346;2022-08-19T02:38:32;14.10;;;11.90;;
20623;SDS011;10471;42.736;23.346;2022-08-19T02:41:00;13.87;;;12.40;;
20623;SDS011;10471;42.736;23.346;2022-08-19T02:43:29;17.13;;;11.90;;
20623;SDS011;10471;42.736;23.346;2022-08-19T02:46:10;15.97;;;12.40;;
20623;SDS011;10471;42.736;23.346;2022-08-19T02:48:40;15.00;;;12.40;;
20623;SDS011;10471;42.736;23.346;2022-08-19T02:51:05;13.97;;;12.27;;
20623;SDS011;10471;42.736;23.346;2022-08-19T02:53:30;13.73;;;12.33;;
20623;SDS011;10471;42.736;23.346;2022-08-19T02:55:56;14.20;;;12.73;;
20623;SDS011;10471;42.736;23.346;2022-08-19T02:58:22;14.77;;;13.07;;
20623;SDS011;10471;42.736;23.346;2022-08-19T03:00:49;18.30;;;13.07;;
20623;SDS011;10471;42.736;23.346;2022-08-19T03:03:16;14.53;;;13.03;;
20623;SDS011;10471;42.736;23.346;2022-08-19T03:05:43;15.37;;;12.47;;
20623;SDS011;10471;42.736;23.346;2022-08-19T03:08:09;15.57;;;12.97;;
20623;SDS011;10471;42.736;23.346;2022-08-19T03:10:47;15.70;;;12.70;;
20623;SDS011;10471;42.736;23.346;2022-08-19T03:13:13;14.97;;;12.60;;
20623;SDS011;10471;42.736;23.346;2022-08-19T03:15:45;15.30;;;13.23;;
20623;SDS011;10471;42.736;23.346;2022-08-19T03:18:12;15.63;;;13.17;;
20623;SDS011;10471;42.736;23.346;2022-08-19T03:20:42;15.17;;;12.90;;
20623;SDS011;10471;42.736;23.346;2022-08-19T03:23:12;15.60;;;14.00;;
20623;SDS011;10471;42.736;23.346;2022-08-19T03:25:39;17.30;;;14.10;;
20623;SDS011;10471;42.736;23.346;2022-08-19T03:28:08;19.20;;;14.60;;
20623;SDS011;10471;42.736;23.346;2022-08-19T03:30:34;16.33;;;14.53;;
20623;SDS011;10471;42.736;23.346;2022-08-19T03:32:59;18.73;;;15.53;;
20623;SDS011;10471;42.736;23.346;2022-08-19T03:35:25;20.37;;;15.70;;
20623;SDS011;10471;42.736;23.346;2022-08-19T03:37:51;18.40;;;14.93;;
20623;SDS011;10471;42.736;23.346;2022-08-19T03:40:17;16.70;;;14.53;;
20623;SDS011;10471;42.736;23.346;2022-08-19T03:42:43;17.03;;;15.23;;
20623;SDS011;10471;42.736;23.346;2022-08-19T03:45:11;18.67;;;14.73;;
20623;SDS011;10471;42.736;23.346;2022-08-19T03:47:36;18.63;;;15.07;;
20623;SDS011;10471;42.736;23.346;2022-08-19T03:50:03;19.83;;;14.67;;
20623;SDS011;10471;42.736;23.346;2022-08-19T03:52:29;16.57;;;14.70;;
20623;SDS011;10471;42.736;23.346;2022-08-19T03:54:55;17.53;;;14.00;;
20623;SDS011;10471;42.736;23.346;2022-08-19T03:57:20;16.47;;;14.17;;
20623;SDS011;10471;42.736;23.346;2022-08-19T03:59:46;18.33;;;13.50;;
20623;SDS011;10471;42.736;23.346;2022-08-19T04:02:11;22.30;;;13.53;;
20623;SDS011;10471;42.736;23.346;2022-08-19T04:04:38;25.23;;;15.70;;
20623;SDS011;10471;42.736;23.346;2022-08-19T04:07:04;24.13;;;14.70;;
20623;SDS011;10471;42.736;23.346;2022-08-19T04:09:30;64.03;;;17.93;;
20623;SDS011;10471;42.736;23.346;2022-08-19T04:11:56;39.50;;;16.20;;
20623;SDS011;10471;42.736;23.346;2022-08-19T04:14:24;28.93;;;14.50;;
20623;SDS011;10471;42.736;23.346;2022-08-19T04:16:52;39.37;;;14.80;;
20623;SDS011;10471;42.736;23.346;2022-08-19T04:19:18;37.67;;;14.67;;
20623;SDS011;10471;42.736;23.346;2022-08-19T04:21:45;24.23;;;14.37;;
20623;SDS011;10471;42.736;23.346;2022-08-19T04:24:12;25.13;;;13.77;;
20623;SDS011;10471;42.736;23.346;2022-08-19T04:26:38;22.03;;;13.20;;
20623;SDS011;10471;42.736;23.346;2022-08-19T04:29:06;18.60;;;13.80;;
20623;SDS011;10471;42.736;23.346;2022-08-19T04:31:36;23.67;;;13.67;;
20623;SDS011;10471;42.736;23.346;2022-08-19T04:34:05;22.87;;;13.67;;
20623;SDS011;10471;42.736;23.346;2022-08-19T04:36:35;19.87;;;12.93;;
20623;SDS011;10471;42.736;23.346;2022-08-19T04:39:03;20.63;;;13.80;;
20623;SDS011;10471;42.736;23.346;2022-08-19T04:41:32;32.43;;;13.90;;
20623;SDS011;10471;42.736;23.346;2022-08-19T04:44:17;25.73;;;14.73;;
20623;SDS011;10471;42.736;23.346;2022-08-19T04:46:43;24.03;;;14.50;;
20623;SDS011;10471;42.736;23.346;2022-08-19T04:49:09;27.13;;;14.67;;
20623;SDS011;10471;42.736;23.346;2022-08-19T04:51:36;26.03;;;14.83;;
20623;SDS011;10471;42.736;23.346;2022-08-19T04:54:02;25.30;;;15.37;;
20623;SDS011;10471;42.736;23.346;2022-08-19T04:56:28;19.23;;;14.70;;
20623;SDS011;10471;42.736;23.346;2022-08-19T04:58:54;21.53;;;15.50;;
20623;SDS011;10471;42.736;23.346;2022-08-19T05:01:24;24.93;;;15.87;;
20623;SDS011;10471;42.736;23.346;2022-08-19T05:03:53;16.60;;;14.50;;
20623;SDS011;10471;42.736;23.346;2022-08-19T05:06:20;19.63;;;14.57;;
20623;SDS011;10471;42.736;23.346;2022-08-19T05:08:47;24.70;;;15.07;;
20623;SDS011;10471;42.736;23.346;2022-08-19T05:11:15;20.07;;;15.37;;
20623;SDS011;10471;42.736;23.346;2022-08-19T05:13:45;19.97;;;14.93;;
20623;SDS011;10471;42.736;23.346;2022-08-19T05:16:11;23.20;;;15.83;;
20623;SDS011;10471;42.736;23.346;2022-08-19T05:18:38;20.53;;;15.47;;
20623;SDS011;10471;42.736;23.346;2022-08-19T05:21:23;20.30;;;14.63;;
20623;SDS011;10471;42.736;23.346;2022-08-19T05:24:08;24.00;;;16.20;;
20623;SDS011;10471;42.736;23.346;2022-08-19T05:26:40;19.03;;;15.40;;
20623;SDS011;10471;42.736;23.346;2022-08-19T05:29:08;19.40;;;15.33;;
20623;SDS011;10471;42.736;23.346;2022-08-19T05:31:34;25.10;;;16.20;;
20623;SDS011;10471;42.736;23.346;2022-08-19T05:34:01;17.47;;;15.37;;
20623;SDS011;10471;42.736;23.346;2022-08-19T05:36:28;22.13;;;14.97;;
20623;SDS011;10471;42.736;23.346;2022-08-19T05:38:59;19.43;;;14.90;;
20623;SDS011;10471;42.736;23.346;2022-08-19T05:41:25;17.13;;;14.90;;
20623;SDS011;10471;42.736;23.346;2022-08-19T05:43:54;17.63;;;14.63;;
20623;SDS011;10471;42.736;23.346;2022-08-19T05:46:21;19.50;;;15.40;;
20623;SDS011;10471;42.736;23.346;2022-08-19T05:48:47;17.50;;;15.13;;
20623;SDS011;10471;42.736;23.346;2022-08-19T05:51:13;20.13;;;16.63;;
20623;SDS011;10471;42.736;23.346;2022-08-19T05:53:39;21.93;;;15.40;;
20623;SDS011;10471;42.736;23.346;2022-08-19T05:56:08;21.60;;;16.43;;
20623;SDS011;10471;42.736;23.346;2022-08-19T05:58:36;18.77;;;15.10;;
20623;SDS011;10471;42.736;23.346;2022-08-19T06:01:02;20.07;;;14.73;;
20623;SDS011;10471;42.736;23.346;2022-08-19T06:03:33;20.00;;;15.20;;
20623;SDS011;10471;42.736;23.346;2022-08-19T06:06:00;19.87;;;15.57;;
20623;SDS011;10471;42.736;23.346;2022-08-19T06:08:27;22.40;;;15.23;;
20623;SDS011;10471;42.736;23.346;2022-08-19T06:10:53;23.23;;;15.03;;
20623;SDS011;10471;42.736;23.346;2022-08-19T06:13:19;19.97;;;14.87;;
20623;SDS011;10471;42.736;23.346;2022-08-19T06:15:45;16.43;;;14.13;;
20623;SDS011;10471;42.736;23.346;2022-08-19T06:18:11;16.00;;;14.30;;
20623;SDS011;10471;42.736;23.346;2022-08-19T06:20:38;20.63;;;14.27;;
20623;SDS011;10471;42.736;23.346;2022-08-19T06:23:03;20.70;;;13.10;;
20623;SDS011;10471;42.736;23.346;2022-08-19T06:25:29;15.10;;;12.00;;
20623;SDS011;10471;42.736;23.346;2022-08-19T06:27:54;14.47;;;12.03;;
20623;SDS011;10471;42.736;23.346;2022-08-19T06:30:20;15.70;;;10.40;;
20623;SDS011;10471;42.736;23.346;2022-08-19T06:32:45;11.30;;;10.10;;
20623;SDS011;10471;42.736;23.346;2022-08-19T06:35:11;15.37;;;9.80;;
20623;SDS011;10471;42.736;23.346;2022-08-19T06:37:38;17.70;;;11.20;;
20623;SDS011;10471;42.736;23.346;2022-08-19T06:40:03;13.13;;;10.20;;
20623;SDS011;10471;42.736;23.346;2022-08-19T06:42:29;11.93;;;10.70;;
20623;SDS011;10471;42.736;23.346;2022-08-19T06:44:56;17.07;;;11.03;;
20623;SDS011;10471;42.736;23.346;2022-08-19T06:47:22;11.63;;;10.13;;
20623;SDS011;10471;42.736;23.346;2022-08-19T06:49:48;13.23;;;9.87;;
20623;SDS011;10471;42.736;23.346;2022-08-19T06:52:13;15.10;;;8.97;;
20623;SDS011;10471;42.736;23.346;2022-08-19T06:54:39;13.23;;;8.37;;
20623;SDS011;10471;42.736;23.346;2022-08-19T06:57:07;16.77;;;9.17;;
20623;SDS011;10471;42.736;23.346;2022-08-19T06:59:34;18.20;;;9.83;;
20623;SDS011;10471;42.736;23.346;2022-08-19T07:02:00;14.00;;;9.07;;
20623;SDS011;10471;42.736;23.346;2022-08-19T07:04:30;19.17;;;9.67;;
20623;SDS011;10471;42.736;23.346;2022-08-19T07:07:01;17.10;;;9.17;;
20623;SDS011;10471;42.736;23.346;2022-08-19T07:09:33;13.97;;;8.63;;
20623;SDS011;10471;42.736;23.346;2022-08-19T07:12:02;14.43;;;9.30;;
20623;SDS011;10471;42.736;23.346;2022-08-19T07:14:29;18.33;;;9.20;;
20623;SDS011;10471;42.736;23.346;2022-08-19T07:16:55;11.03;;;9.60;;
20623;SDS011;10471;42.736;23.346;2022-08-19T07:19:22;14.40;;;9.13;;
20623;SDS011;10471;42.736;23.346;2022-08-19T07:21:52;12.50;;;8.77;;
20623;SDS011;10471;42.736;23.346;2022-08-19T07:24:18;15.07;;;8.90;;
20623;SDS011;10471;42.736;23.346;2022-08-19T07:26:46;14.57;;;9.27;;
20623;SDS011;10471;42.736;23.346;2022-08-19T07:29:11;10.47;;;8.47;;
20623;SDS011;10471;42.736;23.346;2022-08-19T07:31:38;33.83;;;9.93;;
20623;SDS011;10471;42.736;23.346;2022-08-19T07:34:04;19.53;;;9.40;;
20623;SDS011;10471;42.736;23.346;2022-08-19T07:36:32;47.97;;;11.03;;
20623;SDS011;10471;42.736;23.346;2022-08-19T07:39:00;15.53;;;8.20;;
20623;SDS011;10471;42.736;23.346;2022-08-19T07:41:30;13.27;;;7.77;;
20623;SDS011;10471;42.736;23.346;2022-08-19T07:43:56;12.57;;;7.90;;
20623;SDS011;10471;42.736;23.346;2022-08-19T07:46:26;12.33;;;8.10;;
20623;SDS011;10471;42.736;23.346;2022-08-19T07:48:53;9.70;;;8.67;;
20623;SDS011;10471;42.736;23.346;2022-08-19T07:51:19;12.30;;;7.70;;
20623;SDS011;10471;42.736;23.346;2022-08-19T07:53:46;12.20;;;8.10;;
20623;SDS011;10471;42.736;23.346;2022-08-19T07:56:14;10.10;;;7.60;;
20623;SDS011;10471;42.736;23.346;2022-08-19T07:58:42;12.83;;;8.20;;
20623;SDS011;10471;42.736;23.346;2022-08-19T08:01:21;11.70;;;7.20;;
20623;SDS011;10471;42.736;23.346;2022-08-19T08:03:49;9.43;;;7.27;;
20623;SDS011;10471;42.736;23.346;2022-08-19T08:06:34;11.43;;;7.77;;
20623;SDS011;10471;42.736;23.346;2022-08-19T08:09:20;16.40;;;7.87;;
20623;SDS011;10471;42.736;23.346;2022-08-19T08:11:52;12.87;;;8.43;;
20623;SDS011;10471;42.736;23.346;2022-08-19T08:14:25;9.90;;;7.90;;
20623;SDS011;10471;42.736;23.346;2022-08-19T08:16:54;11.53;;;8.27;;
20623;SDS011;10471;42.736;23.346;2022-08-19T08:19:22;11.10;;;8.57;;
20623;SDS011;10471;42.736;23.346;2022-08-19T08:21:49;14.47;;;7.80;;
20623;SDS011;10471;42.736;23.346;2022-08-19T08:24:16;14.17;;;8.33;;
20623;SDS011;10471;42.736;23.346;2022-08-19T08:26:42;13.50;;;8.13;;
20623;SDS011;10471;42.736;23.346;2022-08-19T08:29:09;11.90;;;8.10;;
20623;SDS011;10471;42.736;23.346;2022-08-19T08:31:37;10.33;;;7.63;;
20623;SDS011;10471;42.736;23.346;2022-08-19T08:34:08;15.93;;;8.37;;
20623;SDS011;10471;42.736;23.346;2022-08-19T08:36:38;15.97;;;7.53;;
20623;SDS011;10471;42.736;23.346;2022-08-19T08:39:10;15.03;;;8.53;;
20623;SDS011;10471;42.736;23.346;2022-08-19T08:41:44;13.83;;;8.30;;
20623;SDS011;10471;42.736;23.346;2022-08-19T08:44:20;12.07;;;8.60;;
20623;SDS011;10471;42.736;23.346;2022-08-19T08:46:49;10.37;;;8.33;;
20623;SDS011;10471;42.736;23.346;2022-08-19T08:54:50;9.70;;;7.27;;
20623;SDS011;10471;42.736;23.346;2022-08-19T08:57:21;11.50;;;7.27;;
20623;SDS011;10471;42.736;23.346;2022-08-19T09:00:03;9.87;;;7.00;;
20623;SDS011;10471;42.736;23.346;2022-08-19T09:02:31;8.60;;;6.60;;
20623;SDS011;10471;42.736;23.346;2022-08-19T09:04:57;13.30;;;7.13;;
20623;SDS011;10471;42.736;23.346;2022-08-19T09:07:25;11.60;;;6.50;;
20623;SDS011;10471;42.736;23.346;2022-08-19T09:09:52;8.83;;;5.93;;
20623;SDS011;10471;42.736;23.346;2022-08-19T09:15:24;11.83;;;6.73;;
20623;SDS011;10471;42.736;23.346;2022-08-19T09:17:59;11.17;;;6.20;;
20623;SDS011;10471;42.736;23.346;2022-08-19T09:20:26;8.03;;;5.70;;
20623;SDS011;10471;42.736;23.346;2022-08-19T09:22:52;10.27;;;6.00;;
20623;SDS011;10471;42.736;23.346;2022-08-19T09:25:18;8.67;;;5.60;;
20623;SDS011;10471;42.736;23.346;2022-08-19T09:27:47;8.17;;;5.83;;
20623;SDS011;10471;42.736;23.346;2022-08-19T09:30:15;7.67;;;5.90;;
20623;SDS011;10471;42.736;23.346;2022-08-19T09:32:46;9.83;;;6.50;;
20623;SDS011;10471;42.736;23.346;2022-08-19T09:35:13;7.37;;;5.93;;
20623;SDS011;10471;42.736;23.346;2022-08-19T09:37:40;7.73;;;6.70;;
20623;SDS011;10471;42.736;23.346;2022-08-19T09:40:06;11.83;;;6.13;;
20623;SDS011;10471;42.736;23.346;2022-08-19T09:42:32;8.90;;;4.80;;
20623;SDS011;10471;42.736;23.346;2022-08-19T09:44:58;6.40;;;4.95;;
20623;SDS011;10471;42.736;23.346;2022-08-19T09:47:24;10.25;;;5.72;;
20623;SDS011;10471;42.736;23.346;2022-08-19T09:49:50;6.88;;;4.82;;
20623;SDS011;10471;42.736;23.346;2022-08-19T09:52:15;5.30;;;4.63;;
20623;SDS011;10471;42.736;23.346;2022-08-19T09:54:42;6.90;;;5.13;;
20623;SDS011;10471;42.736;23.346;2022-08-19T09:57:08;9.57;;;5.40;;
20623;SDS011;10471;42.736;23.346;2022-08-19T09:59:33;9.45;;;5.18;;
20623;SDS011;10471;42.736;23.346;2022-08-19T10:01:59;5.90;;;5.20;;
20623;SDS011;10471;42.736;23.346;2022-08-19T10:04:25;5.88;;;4.88;;
20623;SDS011;10471;42.736;23.346;2022-08-19T10:07:10;5.75;;;5.22;;
20623;SDS011;10471;42.736;23.346;2022-08-19T10:09:36;9.25;;;5.40;;
20623;SDS011;10471;42.736;23.346;2022-08-19T10:12:02;5.47;;;4.97;;
20623;SDS011;10471;42.736;23.346;2022-08-19T10:14:29;5.38;;;4.88;;
20623;SDS011;10471;42.736;23.346;2022-08-19T10:16:56;7.43;;;4.80;;
20623;SDS011;10471;42.736;23.346;2022-08-19T10:19:21;6.95;;;5.55;;
20623;SDS011;10471;42.736;23.346;2022-08-19T10:21:47;6.53;;;5.22;;
20623;SDS011;10471;42.736;23.346;2022-08-19T10:24:12;10.27;;;5.70;;
20623;SDS011;10471;42.736;23.346;2022-08-19T10:26:38;7.78;;;5.50;;
20623;SDS011;10471;42.736;23.346;2022-08-19T10:29:07;5.93;;;5.20;;
20623;SDS011;10471;42.736;23.346;2022-08-19T10:31:33;6.97;;;5.25;;
20623;SDS011;10471;42.736;23.346;2022-08-19T10:33:59;7.28;;;5.60;;
20623;SDS011;10471;42.736;23.346;2022-08-19T10:36:30;6.53;;;5.65;;
20623;SDS011;10471;42.736;23.346;2022-08-19T10:38:59;12.02;;;5.70;;
20623;SDS011;10471;42.736;23.346;2022-08-19T10:41:30;6.35;;;5.35;;
20623;SDS011;10471;42.736;23.346;2022-08-19T10:43:59;7.88;;;5.63;;
20623;SDS011;10471;42.736;23.346;2022-08-19T10:46:26;6.68;;;5.45;;
20623;SDS011;10471;42.736;23.346;2022-08-19T10:48:54;6.13;;;5.50;;
20623;SDS011;10471;42.736;23.346;2022-08-19T10:51:20;6.18;;;5.57;;
20623;SDS011;10471;42.736;23.346;2022-08-19T10:54:05;7.32;;;5.57;;
20623;SDS011;10471;42.736;23.346;2022-08-19T10:56:30;10.45;;;5.57;;
20623;SDS011;10471;42.736;23.346;2022-08-19T10:59:16;7.35;;;5.65;;
20623;SDS011;10471;42.736;23.346;2022-08-19T11:01:44;6.28;;;5.70;;
20623;SDS011;10471;42.736;23.346;2022-08-19T11:04:10;7.55;;;5.32;;
20623;SDS011;10471;42.736;23.346;2022-08-19T11:06:38;8.13;;;5.47;;
20623;SDS011;10471;42.736;23.346;2022-08-19T11:09:07;8.48;;;5.40;;
20623;SDS011;10471;42.736;23.346;2022-08-19T11:11:33;6.95;;;5.72;;
20623;SDS011;10471;42.736;23.346;2022-08-19T11:14:04;8.38;;;5.50;;
20623;SDS011;10471;42.736;23.346;2022-08-19T11:16:29;6.07;;;5.45;;
20623;SDS011;10471;42.736;23.346;2022-08-19T11:18:56;10.57;;;5.75;;
20623;SDS011;10471;42.736;23.346;2022-08-19T11:21:28;7.85;;;5.60;;
20623;SDS011;10471;42.736;23.346;2022-08-19T11:23:59;7.85;;;5.55;;
20623;SDS011;10471;42.736;23.346;2022-08-19T11:26:26;7.57;;;5.88;;
20623;SDS011;10471;42.736;23.346;2022-08-19T11:28:52;8.07;;;5.68;;
20623;SDS011;10471;42.736;23.346;2022-08-19T11:31:20;7.90;;;5.55;;
20623;SDS011;10471;42.736;23.346;2022-08-19T11:33:47;7.97;;;5.90;;
20623;SDS011;10471;42.736;23.346;2022-08-19T11:36:16;7.13;;;5.85;;
20623;SDS011;10471;42.736;23.346;2022-08-19T11:38:42;6.35;;;5.75;;
20623;SDS011;10471;42.736;23.346;2022-08-19T11:41:09;9.27;;;6.13;;
20623;SDS011;10471;42.736;23.346;2022-08-19T11:43:35;6.80;;;6.10;;
20623;SDS011;10471;42.736;23.346;2022-08-19T11:46:11;6.28;;;5.68;;
20623;SDS011;10471;42.736;23.346;2022-08-19T11:48:39;6.00;;;5.40;;
20623;SDS011;10471;42.736;23.346;2022-08-19T11:51:07;7.70;;;5.53;;
20623;SDS011;10471;42.736;23.346;2022-08-19T11:53:43;8.25;;;5.90;;
20623;SDS011;10471;42.736;23.346;2022-08-19T11:56:10;8.20;;;6.40;;
20623;SDS011;10471;42.736;23.346;2022-08-19T11:58:37;6.78;;;5.95;;
20623;SDS011;10471;42.736;23.346;2022-08-19T12:01:07;6.47;;;5.80;;
20623;SDS011;10471;42.736;23.346;2022-08-19T12:03:36;10.13;;;6.05;;
20623;SDS011;10471;42.736;23.346;2022-08-19T12:06:04;9.25;;;5.90;;
20623;SDS011;10471;42.736;23.346;2022-08-19T12:08:30;7.32;;;5.90;;
20623;SDS011;10471;42.736;23.346;2022-08-19T12:10:56;15.68;;;6.30;;
20623;SDS011;10471;42.736;23.346;2022-08-19T12:13:22;7.18;;;5.55;;
20623;SDS011;10471;42.736;23.346;2022-08-19T12:15:47;7.57;;;5.88;;
20623;SDS011;10471;42.736;23.346;2022-08-19T12:18:13;8.57;;;6.10;;
20623;SDS011;10471;42.736;23.346;2022-08-19T12:20:42;7.22;;;6.05;;
20623;SDS011;10471;42.736;23.346;2022-08-19T12:23:08;8.63;;;6.00;;
20623;SDS011;10471;42.736;23.346;2022-08-19T12:25:35;8.07;;;5.40;;
20623;SDS011;10471;42.736;23.346;2022-08-19T12:28:01;5.88;;;5.18;;
20623;SDS011;10471;42.736;23.346;2022-08-19T12:30:28;6.93;;;5.20;;
20623;SDS011;10471;42.736;23.346;2022-08-19T12:32:54;8.57;;;5.22;;
20623;SDS011;10471;42.736;23.346;2022-08-19T12:35:19;8.23;;;5.20;;
20623;SDS011;10471;42.736;23.346;2022-08-19T12:37:45;5.60;;;4.90;;
20623;SDS011;10471;42.736;23.346;2022-08-19T12:40:13;5.72;;;4.90;;
20623;SDS011;10471;42.736;23.346;2022-08-19T12:42:45;6.82;;;5.30;;
20623;SDS011;10471;42.736;23.346;2022-08-19T12:45:11;6.00;;;5.18;;
20623;SDS011;10471;42.736;23.346;2022-08-19T12:47:38;7.55;;;5.63;;
20623;SDS011;10471;42.736;23.346;2022-08-19T12:50:05;8.32;;;5.68;;
20623;SDS011;10471;42.736;23.346;2022-08-19T12:52:34;8.35;;;5.22;;
20623;SDS011;10471;42.736;23.346;2022-08-19T12:55:02;5.85;;;5.13;;
20623;SDS011;10471;42.736;23.346;2022-08-19T12:57:29;6.43;;;4.88;;
20623;SDS011;10471;42.736;23.346;2022-08-19T12:59:58;8.25;;;5.28;;
20623;SDS011;10471;42.736;23.346;2022-08-19T13:02:24;6.20;;;5.07;;
20623;SDS011;10471;42.736;23.346;2022-08-19T13:04:50;6.90;;;5.30;;
20623;SDS011;10471;42.736;23.346;2022-08-19T13:07:15;7.38;;;4.88;;
20623;SDS011;10471;42.736;23.346;2022-08-19T13:09:40;6.85;;;5.00;;
20623;SDS011;10471;42.736;23.346;2022-08-19T13:12:07;7.13;;;4.97;;
20623;SDS011;10471;42.736;23.346;2022-08-19T13:14:37;6.82;;;5.22;;
20623;SDS011;10471;42.736;23.346;2022-08-19T13:17:05;6.00;;;5.40;;
20623;SDS011;10471;42.736;23.346;2022-08-19T13:19:30;6.88;;;4.93;;
20623;SDS011;10471;42.736;23.346;2022-08-19T13:21:56;6.35;;;5.45;;
20623;SDS011;10471;42.736;23.346;2022-08-19T13:24:22;6.88;;;5.10;;
20623;SDS011;10471;42.736;23.346;2022-08-19T13:26:48;5.90;;;5.30;;
20623;SDS011;10471;42.736;23.346;2022-08-19T13:29:13;7.90;;;5.18;;
20623;SDS011;10471;42.736;23.346;2022-08-19T13:31:57;7.88;;;5.53;;
20623;SDS011;10471;42.736;23.346;2022-08-19T13:34:42;9.73;;;5.50;;
20623;SDS011;10471;42.736;23.346;2022-08-19T13:37:07;6.00;;;5.10;;
20623;SDS011;10471;42.736;23.346;2022-08-19T13:39:33;7.25;;;5.13;;
20623;SDS011;10471;42.736;23.346;2022-08-19T13:42:00;6.85;;;5.18;;
20623;SDS011;10471;42.736;23.346;2022-08-19T13:44:26;8.50;;;5.70;;
20623;SDS011;10471;42.736;23.346;2022-08-19T13:46:54;6.82;;;4.95;;
20623;SDS011;10471;42.736;23.346;2022-08-19T13:49:25;7.22;;;5.30;;
20623;SDS011;10471;42.736;23.346;2022-08-19T13:51:50;6.53;;;5.35;;
20623;SDS011;10471;42.736;23.346;2022-08-19T13:54:16;6.13;;;5.20;;
20623;SDS011;10471;42.736;23.346;2022-08-19T13:56:42;8.77;;;5.38;;
20623;SDS011;10471;42.736;23.346;2022-08-19T13:59:10;8.23;;;5.70;;
20623;SDS011;10471;42.736;23.346;2022-08-19T14:01:36;5.47;;;4.97;;
20623;SDS011;10471;42.736;23.346;2022-08-19T14:04:03;6.90;;;5.20;;
20623;SDS011;10471;42.736;23.346;2022-08-19T14:06:30;7.57;;;5.28;;
20623;SDS011;10471;42.736;23.346;2022-08-19T14:08:56;11.60;;;6.28;;
20623;SDS011;10471;42.736;23.346;2022-08-19T14:11:21;7.65;;;5.50;;
20623;SDS011;10471;42.736;23.346;2022-08-19T14:13:48;6.78;;;5.93;;
20623;SDS011;10471;42.736;23.346;2022-08-19T14:16:14;9.10;;;6.18;;
20623;SDS011;10471;42.736;23.346;2022-08-19T14:18:41;6.07;;;5.32;;
20623;SDS011;10471;42.736;23.346;2022-08-19T14:21:08;6.03;;;5.53;;
20623;SDS011;10471;42.736;23.346;2022-08-19T14:23:40;6.88;;;5.50;;
20623;SDS011;10471;42.736;23.346;2022-08-19T14:26:10;6.38;;;5.68;;
20623;SDS011;10471;42.736;23.346;2022-08-19T14:28:39;6.75;;;5.90;;
20623;SDS011;10471;42.736;23.346;2022-08-19T14:31:06;11.57;;;6.03;;
20623;SDS011;10471;42.736;23.346;2022-08-19T14:33:33;7.22;;;5.97;;